sensor_id;sensor_type;location;lat;lon;timestamp;noise_LAeq;noise_LA_min;noise_LA_max;noise_LA01;noise_LA95
186;Laerm;55473;48.800;9.002;2023-12-29T00:00:30;38.00;35.58;48.92;;
186;Laerm;55473;48.800;9.002;2023-12-29T00:02:59;39.09;35.90;46.00;;
186;Laerm;55473;48.800;9.002;2023-12-29T00:05:25;39.23;36.05;46.54;;
186;Laerm;55473;48.800;9.002;2023-12-29T00:07:52;37.99;35.35;48.06;;
186;Laerm;55473;48.800;9.002;2023-12-29T00:10:18;38.72;35.64;45.81;;
186;Laerm;55473;48.800;9.002;2023-12-29T00:12:44;39.34;35.92;50.94;;
186;Laerm;55473;48.800;9.002;2023-12-29T00:15:10;43.78;36.75;56.07;;
186;Laerm;55473;48.800;9.002;2023-12-29T00:17:36;41.91;36.13;57.81;;
186;Laerm;55473;48.800;9.002;2023-12-29T00:20:07;54.87;36.11;64.94;;
186;Laerm;55473;48.800;9.002;2023-12-29T00:22:34;38.24;35.19;44.11;;
186;Laerm;55473;48.800;9.002;2023-12-29T00:25:00;38.15;35.11;54.51;;
186;Laerm;55473;48.800;9.002;2023-12-29T00:27:25;39.00;35.41;54.04;;
186;Laerm;55473;48.800;9.002;2023-12-29T00:29:51;37.55;34.69;52.38;;
186;Laerm;55473;48.800;9.002;2023-12-29T00:32:17;37.32;35.39;43.00;;
186;Laerm;55473;48.800;9.002;2023-12-29T00:34:43;38.60;35.80;49.12;;
186;Laerm;55473;48.800;9.002;2023-12-29T00:37:09;39.27;35.45;64.36;;
186;Laerm;55473;48.800;9.002;2023-12-29T00:39:35;39.29;35.68;56.91;;
186;Laerm;55473;48.800;9.002;2023-12-29T00:42:05;39.49;35.15;64.53;;
186;Laerm;55473;48.800;9.002;2023-12-29T00:44:33;39.04;35.49;47.65;;
186;Laerm;55473;48.800;9.002;2023-12-29T00:46:59;39.55;35.52;58.04;;
186;Laerm;55473;48.800;9.002;2023-12-29T00:49:26;38.80;35.04;45.88;;
186;Laerm;55473;48.800;9.002;2023-12-29T00:51:52;38.40;35.12;45.58;;
186;Laerm;55473;48.800;9.002;2023-12-29T00:54:18;38.03;34.95;47.55;;
186;Laerm;55473;48.800;9.002;2023-12-29T00:56:51;37.11;34.49;40.86;;
186;Laerm;55473;48.800;9.002;2023-12-29T00:59:19;37.51;34.92;43.19;;
186;Laerm;55473;48.800;9.002;2023-12-29T01:01:45;38.14;35.55;44.97;;
186;Laerm;55473;48.800;9.002;2023-12-29T01:04:11;38.17;35.29;50.95;;
186;Laerm;55473;48.800;9.002;2023-12-29T01:06:37;37.37;34.92;41.40;;
186;Laerm;55473;48.800;9.002;2023-12-29T01:09:03;37.52;35.31;41.17;;
186;Laerm;55473;48.800;9.002;2023-12-29T01:11:29;38.27;35.54;43.84;;
186;Laerm;55473;48.800;9.002;2023-12-29T01:13:56;37.85;35.24;43.43;;
186;Laerm;55473;48.800;9.002;2023-12-29T01:16:21;37.38;35.12;40.76;;
186;Laerm;55473;48.800;9.002;2023-12-29T01:18:47;37.42;35.24;41.29;;
186;Laerm;55473;48.800;9.002;2023-12-29T01:21:13;37.47;35.36;41.05;;
186;Laerm;55473;48.800;9.002;2023-12-29T01:23:39;38.39;35.43;47.92;;
186;Laerm;55473;48.800;9.002;2023-12-29T01:26:05;37.73;34.94;41.13;;
186;Laerm;55473;48.800;9.002;2023-12-29T01:28:31;37.75;35.36;41.21;;
186;Laerm;55473;48.800;9.002;2023-12-29T01:30:57;38.93;35.64;46.72;;
186;Laerm;55473;48.800;9.002;2023-12-29T01:33:23;38.55;35.70;44.38;;
186;Laerm;55473;48.800;9.002;2023-12-29T01:35:49;39.13;35.72;47.79;;
186;Laerm;55473;48.800;9.002;2023-12-29T01:38:15;37.94;35.75;45.23;;
186;Laerm;55473;48.800;9.002;2023-12-29T01:40:45;38.44;35.65;44.15;;
186;Laerm;55473;48.800;9.002;2023-12-29T01:43:12;39.73;36.51;50.27;;
186;Laerm;55473;48.800;9.002;2023-12-29T01:45:37;40.30;36.56;58.39;;
186;Laerm;55473;48.800;9.002;2023-12-29T01:48:04;42.76;36.50;59.33;;
186;Laerm;55473;48.800;9.002;2023-12-29T01:50:31;39.59;36.43;47.16;;
186;Laerm;55473;48.800;9.002;2023-12-29T01:52:58;41.90;37.08;55.97;;
186;Laerm;55473;48.800;9.002;2023-12-29T01:55:26;41.66;35.91;58.62;;
186;Laerm;55473;48.800;9.002;2023-12-29T01:57:53;39.40;36.77;43.02;;
186;Laerm;55473;48.800;9.002;2023-12-29T02:00:20;38.47;36.22;41.64;;
186;Laerm;55473;48.800;9.002;2023-12-29T02:02:47;38.87;36.53;46.56;;
186;Laerm;55473;48.800;9.002;2023-12-29T02:05:14;39.23;36.73;48.18;;
186;Laerm;55473;48.800;9.002;2023-12-29T02:07:42;41.39;36.36;56.00;;
186;Laerm;55473;48.800;9.002;2023-12-29T02:10:08;40.39;35.58;50.18;;
186;Laerm;55473;48.800;9.002;2023-12-29T02:12:35;39.15;36.49;55.55;;
186;Laerm;55473;48.800;9.002;2023-12-29T02:15:04;39.96;36.51;49.57;;
186;Laerm;55473;48.800;9.002;2023-12-29T02:17:47;38.57;36.11;44.81;;
186;Laerm;55473;48.800;9.002;2023-12-29T02:20:16;39.45;36.10;45.18;;
186;Laerm;55473;48.800;9.002;2023-12-29T02:22:42;41.34;36.89;57.19;;
186;Laerm;55473;48.800;9.002;2023-12-29T02:25:09;39.12;36.36;49.37;;
186;Laerm;55473;48.800;9.002;2023-12-29T02:30:43;41.16;37.16;50.44;;
186;Laerm;55473;48.800;9.002;2023-12-29T02:33:20;43.17;36.58;58.08;;
186;Laerm;55473;48.800;9.002;2023-12-29T02:35:50;43.40;37.37;62.26;;
186;Laerm;55473;48.800;9.002;2023-12-29T02:38:17;40.40;37.06;45.81;;
186;Laerm;55473;48.800;9.002;2023-12-29T02:40:43;40.95;36.66;58.82;;
186;Laerm;55473;48.800;9.002;2023-12-29T02:43:09;40.36;36.94;55.01;;
186;Laerm;55473;48.800;9.002;2023-12-29T02:45:35;43.58;37.87;57.28;;
186;Laerm;55473;48.800;9.002;2023-12-29T02:48:01;40.58;37.16;46.91;;
186;Laerm;55473;48.800;9.002;2023-12-29T02:50:27;43.55;38.24;60.10;;
186;Laerm;55473;48.800;9.002;2023-12-29T02:52:53;41.12;36.86;59.84;;
186;Laerm;55473;48.800;9.002;2023-12-29T02:55:19;40.82;35.53;53.40;;
186;Laerm;55473;48.800;9.002;2023-12-29T02:57:45;40.75;36.03;56.03;;
186;Laerm;55473;48.800;9.002;2023-12-29T03:00:11;40.49;36.99;47.61;;
186;Laerm;55473;48.800;9.002;2023-12-29T03:02:37;43.87;36.26;57.52;;
186;Laerm;55473;48.800;9.002;2023-12-29T03:05:03;40.87;36.52;50.03;;
186;Laerm;55473;48.800;9.002;2023-12-29T03:07:29;39.02;35.59;46.55;;
186;Laerm;55473;48.800;9.002;2023-12-29T03:09:55;38.56;36.14;41.89;;
186;Laerm;55473;48.800;9.002;2023-12-29T03:12:21;39.06;36.44;47.93;;
186;Laerm;55473;48.800;9.002;2023-12-29T03:14:47;38.70;35.96;43.56;;
186;Laerm;55473;48.800;9.002;2023-12-29T03:17:13;38.98;35.66;49.98;;
186;Laerm;55473;48.800;9.002;2023-12-29T03:19:39;42.80;36.47;57.53;;
186;Laerm;55473;48.800;9.002;2023-12-29T03:22:04;39.43;36.59;48.35;;
186;Laerm;55473;48.800;9.002;2023-12-29T03:24:30;40.36;36.33;53.69;;
186;Laerm;55473;48.800;9.002;2023-12-29T03:26:56;40.11;35.45;50.00;;
186;Laerm;55473;48.800;9.002;2023-12-29T03:29:22;39.54;36.11;53.09;;
186;Laerm;55473;48.800;9.002;2023-12-29T03:31:48;41.41;36.20;50.92;;
186;Laerm;55473;48.800;9.002;2023-12-29T03:34:14;39.82;36.00;52.74;;
186;Laerm;55473;48.800;9.002;2023-12-29T03:36:40;38.01;35.61;41.93;;
186;Laerm;55473;48.800;9.002;2023-12-29T03:39:05;38.53;35.41;49.54;;
186;Laerm;55473;48.800;9.002;2023-12-29T03:41:31;40.80;35.87;47.63;;
186;Laerm;55473;48.800;9.002;2023-12-29T03:43:57;38.73;35.79;45.68;;
186;Laerm;55473;48.800;9.002;2023-12-29T03:46:25;40.20;36.19;56.89;;
186;Laerm;55473;48.800;9.002;2023-12-29T03:48:51;44.96;36.33;57.72;;
186;Laerm;55473;48.800;9.002;2023-12-29T03:51:18;41.66;36.38;58.53;;
186;Laerm;55473;48.800;9.002;2023-12-29T03:53:44;41.60;36.95;50.70;;
186;Laerm;55473;48.800;9.002;2023-12-29T03:56:16;39.88;36.32;49.02;;
186;Laerm;55473;48.800;9.002;2023-12-29T03:58:43;42.53;37.06;54.61;;
186;Laerm;55473;48.800;9.002;2023-12-29T04:01:14;48.05;38.12;58.63;;
186;Laerm;55473;48.800;9.002;2023-12-29T04:03:41;43.10;35.91;56.97;;
186;Laerm;55473;48.800;9.002;2023-12-29T04:06:08;46.28;36.84;58.99;;
186;Laerm;55473;48.800;9.002;2023-12-29T04:08:35;44.21;37.66;59.92;;
186;Laerm;55473;48.800;9.002;2023-12-29T04:11:02;38.93;36.22;45.30;;
186;Laerm;55473;48.800;9.002;2023-12-29T04:13:29;40.03;36.79;45.30;;
186;Laerm;55473;48.800;9.002;2023-12-29T04:15:55;42.35;36.76;50.20;;
186;Laerm;55473;48.800;9.002;2023-12-29T04:18:23;46.65;36.87;58.72;;
186;Laerm;55473;48.800;9.002;2023-12-29T04:20:50;39.77;36.58;51.57;;
186;Laerm;55473;48.800;9.002;2023-12-29T04:23:16;43.58;37.95;54.58;;
186;Laerm;55473;48.800;9.002;2023-12-29T04:25:42;44.53;39.32;60.38;;
186;Laerm;55473;48.800;9.002;2023-12-29T04:28:08;45.01;36.93;59.54;;
186;Laerm;55473;48.800;9.002;2023-12-29T04:30:34;41.06;37.00;49.81;;
186;Laerm;55473;48.800;9.002;2023-12-29T04:33:00;44.07;37.75;54.95;;
186;Laerm;55473;48.800;9.002;2023-12-29T04:35:26;47.32;37.07;58.66;;
186;Laerm;55473;48.800;9.002;2023-12-29T04:37:52;40.26;36.70;45.78;;
186;Laerm;55473;48.800;9.002;2023-12-29T04:40:18;41.21;37.53;47.47;;
186;Laerm;55473;48.800;9.002;2023-12-29T04:42:44;40.80;37.03;46.76;;
186;Laerm;55473;48.800;9.002;2023-12-29T04:45:11;41.36;36.92;47.25;;
186;Laerm;55473;48.800;9.002;2023-12-29T04:47:38;41.54;37.45;48.10;;
186;Laerm;55473;48.800;9.002;2023-12-29T04:50:04;48.09;37.16;59.95;;
186;Laerm;55473;48.800;9.002;2023-12-29T04:52:32;42.90;37.40;55.72;;
186;Laerm;55473;48.800;9.002;2023-12-29T04:54:58;44.11;37.04;54.25;;
186;Laerm;55473;48.800;9.002;2023-12-29T04:57:24;41.55;37.20;47.16;;
186;Laerm;55473;48.800;9.002;2023-12-29T04:59:49;39.69;37.01;47.11;;
186;Laerm;55473;48.800;9.002;2023-12-29T05:02:15;46.92;37.33;57.98;;
186;Laerm;55473;48.800;9.002;2023-12-29T05:04:41;46.14;38.20;59.48;;
186;Laerm;55473;48.800;9.002;2023-12-29T05:07:09;42.16;37.28;57.46;;
186;Laerm;55473;48.800;9.002;2023-12-29T05:09:35;45.29;37.63;55.58;;
186;Laerm;55473;48.800;9.002;2023-12-29T05:12:02;43.47;37.65;53.76;;
186;Laerm;55473;48.800;9.002;2023-12-29T05:14:27;46.74;38.53;58.03;;
186;Laerm;55473;48.800;9.002;2023-12-29T05:16:53;45.79;38.74;57.28;;
186;Laerm;55473;48.800;9.002;2023-12-29T05:19:19;43.14;38.35;50.00;;
186;Laerm;55473;48.800;9.002;2023-12-29T05:21:45;47.81;37.26;61.91;;
186;Laerm;55473;48.800;9.002;2023-12-29T05:24:11;41.40;37.72;47.17;;
186;Laerm;55473;48.800;9.002;2023-12-29T05:26:37;41.76;38.11;47.15;;
186;Laerm;55473;48.800;9.002;2023-12-29T05:29:03;44.56;38.34;53.33;;
186;Laerm;55473;48.800;9.002;2023-12-29T05:31:29;42.97;38.47;51.90;;
186;Laerm;55473;48.800;9.002;2023-12-29T05:33:56;49.83;41.67;66.67;;
186;Laerm;55473;48.800;9.002;2023-12-29T05:36:22;48.36;40.42;66.77;;
186;Laerm;55473;48.800;9.002;2023-12-29T05:38:48;51.51;42.56;68.84;;
186;Laerm;55473;48.800;9.002;2023-12-29T05:41:14;55.14;45.73;70.37;;
186;Laerm;55473;48.800;9.002;2023-12-29T05:43:39;52.10;40.85;68.56;;
186;Laerm;55473;48.800;9.002;2023-12-29T05:46:12;53.75;41.82;70.75;;
186;Laerm;55473;48.800;9.002;2023-12-29T05:48:41;52.93;42.55;69.90;;
186;Laerm;55473;48.800;9.002;2023-12-29T05:51:12;49.83;38.90;70.08;;
186;Laerm;55473;48.800;9.002;2023-12-29T05:53:42;47.82;39.48;70.31;;
186;Laerm;55473;48.800;9.002;2023-12-29T05:56:12;50.14;41.43;70.15;;
186;Laerm;55473;48.800;9.002;2023-12-29T05:58:38;52.93;43.51;70.90;;
186;Laerm;55473;48.800;9.002;2023-12-29T06:01:05;53.37;41.28;72.68;;
186;Laerm;55473;48.800;9.002;2023-12-29T06:03:31;52.80;43.06;72.17;;
186;Laerm;55473;48.800;9.002;2023-12-29T06:05:57;49.60;40.59;67.94;;
186;Laerm;55473;48.800;9.002;2023-12-29T06:08:23;48.16;40.35;69.59;;
186;Laerm;55473;48.800;9.002;2023-12-29T06:10:49;47.73;41.09;65.04;;
186;Laerm;55473;48.800;9.002;2023-12-29T06:13:15;49.84;41.00;71.19;;
186;Laerm;55473;48.800;9.002;2023-12-29T06:15:41;49.15;40.59;69.63;;
186;Laerm;55473;48.800;9.002;2023-12-29T06:18:06;49.30;40.26;63.95;;
186;Laerm;55473;48.800;9.002;2023-12-29T06:20:32;45.65;39.15;64.52;;
186;Laerm;55473;48.800;9.002;2023-12-29T06:22:59;46.12;39.64;67.01;;
186;Laerm;55473;48.800;9.002;2023-12-29T06:25:25;44.08;39.24;64.01;;
186;Laerm;55473;48.800;9.002;2023-12-29T06:27:51;46.67;40.79;65.69;;
186;Laerm;55473;48.800;9.002;2023-12-29T06:30:16;47.32;41.39;65.49;;
186;Laerm;55473;48.800;9.002;2023-12-29T06:32:42;46.77;39.77;66.45;;
186;Laerm;55473;48.800;9.002;2023-12-29T06:35:09;48.98;40.48;64.42;;
186;Laerm;55473;48.800;9.002;2023-12-29T06:37:38;49.25;41.19;69.77;;
186;Laerm;55473;48.800;9.002;2023-12-29T06:40:08;45.95;40.54;65.24;;
186;Laerm;55473;48.800;9.002;2023-12-29T06:42:34;46.62;41.61;61.01;;
186;Laerm;55473;48.800;9.002;2023-12-29T06:45:00;51.37;39.76;64.59;;
186;Laerm;55473;48.800;9.002;2023-12-29T06:47:25;50.80;39.95;68.43;;
186;Laerm;55473;48.800;9.002;2023-12-29T06:49:51;45.66;39.82;56.22;;
186;Laerm;55473;48.800;9.002;2023-12-29T06:52:17;44.75;38.83;65.14;;
186;Laerm;55473;48.800;9.002;2023-12-29T06:54:43;45.29;39.74;59.81;;
186;Laerm;55473;48.800;9.002;2023-12-29T06:57:09;44.90;39.56;69.10;;
186;Laerm;55473;48.800;9.002;2023-12-29T06:59:35;45.16;39.44;62.23;;
186;Laerm;55473;48.800;9.002;2023-12-29T07:02:01;47.97;39.97;67.04;;
186;Laerm;55473;48.800;9.002;2023-12-29T07:04:26;50.72;41.31;64.77;;
186;Laerm;55473;48.800;9.002;2023-12-29T07:06:53;49.79;40.94;67.60;;
186;Laerm;55473;48.800;9.002;2023-12-29T07:09:18;49.21;40.67;71.38;;
186;Laerm;55473;48.800;9.002;2023-12-29T07:11:48;45.44;38.82;70.15;;
186;Laerm;55473;48.800;9.002;2023-12-29T07:14:15;46.28;39.88;64.83;;
186;Laerm;55473;48.800;9.002;2023-12-29T07:16:41;48.78;41.02;68.25;;
186;Laerm;55473;48.800;9.002;2023-12-29T07:19:07;49.29;42.45;65.62;;
186;Laerm;55473;48.800;9.002;2023-12-29T07:21:33;47.24;41.24;67.93;;
186;Laerm;55473;48.800;9.002;2023-12-29T07:23:59;45.59;40.85;61.64;;
186;Laerm;55473;48.800;9.002;2023-12-29T07:26:25;46.46;41.63;64.49;;
186;Laerm;55473;48.800;9.002;2023-12-29T07:28:52;48.96;41.87;68.67;;
186;Laerm;55473;48.800;9.002;2023-12-29T07:31:21;47.22;40.47;61.48;;
186;Laerm;55473;48.800;9.002;2023-12-29T07:33:47;45.38;40.83;64.21;;
186;Laerm;55473;48.800;9.002;2023-12-29T07:36:13;48.20;41.23;59.02;;
186;Laerm;55473;48.800;9.002;2023-12-29T07:38:39;46.64;40.93;68.29;;
186;Laerm;55473;48.800;9.002;2023-12-29T07:41:04;47.26;41.22;67.88;;
186;Laerm;55473;48.800;9.002;2023-12-29T07:43:31;46.12;41.00;60.37;;
186;Laerm;55473;48.800;9.002;2023-12-29T07:45:57;48.40;41.91;67.20;;
186;Laerm;55473;48.800;9.002;2023-12-29T07:48:23;50.97;43.22;65.36;;
186;Laerm;55473;48.800;9.002;2023-12-29T07:50:49;47.95;42.12;66.37;;
186;Laerm;55473;48.800;9.002;2023-12-29T07:53:15;47.48;40.66;66.10;;
186;Laerm;55473;48.800;9.002;2023-12-29T07:55:43;48.05;41.75;64.89;;
186;Laerm;55473;48.800;9.002;2023-12-29T07:58:09;47.92;43.11;58.52;;
186;Laerm;55473;48.800;9.002;2023-12-29T08:00:36;49.50;42.65;66.09;;
186;Laerm;55473;48.800;9.002;2023-12-29T08:03:03;46.83;41.18;62.93;;
186;Laerm;55473;48.800;9.002;2023-12-29T08:05:29;48.48;41.96;63.12;;
186;Laerm;55473;48.800;9.002;2023-12-29T08:07:54;50.08;41.34;64.36;;
186;Laerm;55473;48.800;9.002;2023-12-29T08:10:20;47.55;41.65;60.01;;
186;Laerm;55473;48.800;9.002;2023-12-29T08:12:46;48.16;41.52;61.14;;
186;Laerm;55473;48.800;9.002;2023-12-29T08:15:12;48.70;41.38;61.73;;
186;Laerm;55473;48.800;9.002;2023-12-29T08:17:38;50.14;41.64;68.79;;
186;Laerm;55473;48.800;9.002;2023-12-29T08:20:05;50.46;43.21;75.23;;
186;Laerm;55473;48.800;9.002;2023-12-29T08:22:31;47.28;41.68;62.04;;
186;Laerm;55473;48.800;9.002;2023-12-29T08:24:58;47.35;41.48;68.91;;
186;Laerm;55473;48.800;9.002;2023-12-29T08:27:25;47.92;41.41;60.19;;
186;Laerm;55473;48.800;9.002;2023-12-29T08:29:52;48.95;41.46;66.27;;
186;Laerm;55473;48.800;9.002;2023-12-29T08:32:20;49.76;42.46;61.64;;
186;Laerm;55473;48.800;9.002;2023-12-29T08:34:46;48.93;41.80;59.86;;
186;Laerm;55473;48.800;9.002;2023-12-29T08:37:12;47.72;41.76;63.17;;
186;Laerm;55473;48.800;9.002;2023-12-29T08:39:41;48.03;41.59;66.07;;
186;Laerm;55473;48.800;9.002;2023-12-29T08:42:07;48.89;42.89;74.59;;
186;Laerm;55473;48.800;9.002;2023-12-29T08:44:33;49.00;42.15;62.56;;
186;Laerm;55473;48.800;9.002;2023-12-29T08:46:59;50.01;41.87;63.08;;
186;Laerm;55473;48.800;9.002;2023-12-29T08:49:25;48.01;42.05;58.25;;
186;Laerm;55473;48.800;9.002;2023-12-29T08:51:51;46.31;41.58;57.56;;
186;Laerm;55473;48.800;9.002;2023-12-29T08:54:16;50.20;42.67;63.08;;
186;Laerm;55473;48.800;9.002;2023-12-29T08:56:42;47.56;42.06;63.61;;
186;Laerm;55473;48.800;9.002;2023-12-29T08:59:08;47.05;42.51;54.50;;
186;Laerm;55473;48.800;9.002;2023-12-29T09:01:34;48.56;42.64;59.30;;
186;Laerm;55473;48.800;9.002;2023-12-29T09:04:00;49.38;42.19;60.53;;
186;Laerm;55473;48.800;9.002;2023-12-29T09:06:26;46.72;41.63;59.65;;
186;Laerm;55473;48.800;9.002;2023-12-29T09:08:51;46.28;40.02;55.22;;
186;Laerm;55473;48.800;9.002;2023-12-29T09:11:17;46.60;41.65;57.55;;
186;Laerm;55473;48.800;9.002;2023-12-29T09:13:43;47.82;42.06;65.76;;
186;Laerm;55473;48.800;9.002;2023-12-29T09:16:09;47.92;42.97;57.44;;
186;Laerm;55473;48.800;9.002;2023-12-29T09:18:35;50.00;41.63;61.86;;
186;Laerm;55473;48.800;9.002;2023-12-29T09:21:01;45.98;41.03;56.40;;
186;Laerm;55473;48.800;9.002;2023-12-29T09:23:27;47.00;42.68;58.37;;
186;Laerm;55473;48.800;9.002;2023-12-29T09:25:53;46.93;42.34;56.90;;
186;Laerm;55473;48.800;9.002;2023-12-29T09:28:19;48.07;42.87;61.78;;
186;Laerm;55473;48.800;9.002;2023-12-29T09:30:47;49.48;43.00;69.87;;
186;Laerm;55473;48.800;9.002;2023-12-29T09:33:13;49.97;42.01;62.36;;
186;Laerm;55473;48.800;9.002;2023-12-29T09:35:40;47.61;43.68;63.52;;
186;Laerm;55473;48.800;9.002;2023-12-29T09:38:06;48.31;43.98;61.88;;
186;Laerm;55473;48.800;9.002;2023-12-29T09:40:32;48.34;43.69;68.23;;
186;Laerm;55473;48.800;9.002;2023-12-29T09:42:59;48.17;43.72;61.82;;
186;Laerm;55473;48.800;9.002;2023-12-29T09:45:27;49.25;42.72;66.00;;
186;Laerm;55473;48.800;9.002;2023-12-29T09:47:56;50.74;42.41;68.27;;
186;Laerm;55473;48.800;9.002;2023-12-29T09:50:25;47.86;42.24;62.31;;
186;Laerm;55473;48.800;9.002;2023-12-29T09:52:53;47.64;41.75;69.46;;
186;Laerm;55473;48.800;9.002;2023-12-29T09:55:21;46.97;41.96;62.56;;
186;Laerm;55473;48.800;9.002;2023-12-29T09:57:47;49.58;43.34;70.06;;
186;Laerm;55473;48.800;9.002;2023-12-29T10:00:16;47.78;42.55;60.78;;
186;Laerm;55473;48.800;9.002;2023-12-29T10:02:42;49.35;42.33;59.27;;
186;Laerm;55473;48.800;9.002;2023-12-29T10:05:08;48.64;43.11;67.12;;
186;Laerm;55473;48.800;9.002;2023-12-29T10:07:39;46.50;39.99;59.23;;
186;Laerm;55473;48.800;9.002;2023-12-29T10:10:06;45.41;41.19;52.80;;
186;Laerm;55473;48.800;9.002;2023-12-29T10:12:32;45.62;41.62;52.23;;
186;Laerm;55473;48.800;9.002;2023-12-29T10:19:00;48.36;41.64;58.90;;
186;Laerm;55473;48.800;9.002;2023-12-29T10:21:52;44.80;40.93;51.01;;
186;Laerm;55473;48.800;9.002;2023-12-29T10:24:21;45.58;40.45;51.62;;
186;Laerm;55473;48.800;9.002;2023-12-29T10:26:49;45.30;41.39;54.47;;
186;Laerm;55473;48.800;9.002;2023-12-29T10:29:16;46.49;41.34;64.57;;
186;Laerm;55473;48.800;9.002;2023-12-29T10:31:44;46.96;40.92;62.96;;
186;Laerm;55473;48.800;9.002;2023-12-29T10:34:25;50.14;41.89;62.89;;
186;Laerm;55473;48.800;9.002;2023-12-29T10:36:56;44.75;41.23;52.55;;
186;Laerm;55473;48.800;9.002;2023-12-29T10:39:22;46.27;41.08;69.51;;
186;Laerm;55473;48.800;9.002;2023-12-29T10:41:49;46.39;41.73;51.85;;
186;Laerm;55473;48.800;9.002;2023-12-29T10:44:16;46.82;41.41;60.07;;
186;Laerm;55473;48.800;9.002;2023-12-29T10:46:43;48.98;42.56;63.60;;
186;Laerm;55473;48.800;9.002;2023-12-29T10:49:12;51.25;43.06;75.05;;
186;Laerm;55473;48.800;9.002;2023-12-29T10:51:40;46.94;41.23;65.02;;
186;Laerm;55473;48.800;9.002;2023-12-29T10:54:06;47.12;41.13;63.03;;
186;Laerm;55473;48.800;9.002;2023-12-29T10:56:33;49.82;41.94;71.97;;
186;Laerm;55473;48.800;9.002;2023-12-29T10:59:04;45.50;40.00;59.65;;
186;Laerm;55473;48.800;9.002;2023-12-29T11:01:39;49.15;40.51;61.76;;
186;Laerm;55473;48.800;9.002;2023-12-29T11:04:06;47.11;41.80;61.08;;
186;Laerm;55473;48.800;9.002;2023-12-29T11:06:44;47.16;41.79;59.08;;
186;Laerm;55473;48.800;9.002;2023-12-29T11:09:12;46.31;41.79;56.70;;
186;Laerm;55473;48.800;9.002;2023-12-29T11:11:39;46.42;41.39;55.15;;
186;Laerm;55473;48.800;9.002;2023-12-29T11:14:05;48.31;42.23;65.84;;
186;Laerm;55473;48.800;9.002;2023-12-29T11:16:31;46.77;42.02;59.39;;
186;Laerm;55473;48.800;9.002;2023-12-29T11:19:01;49.82;42.66;59.89;;
186;Laerm;55473;48.800;9.002;2023-12-29T11:21:30;49.17;42.20;57.97;;
186;Laerm;55473;48.800;9.002;2023-12-29T11:23:57;48.44;43.25;62.97;;
186;Laerm;55473;48.800;9.002;2023-12-29T11:26:26;46.23;41.00;59.74;;
186;Laerm;55473;48.800;9.002;2023-12-29T11:28:54;48.27;41.12;60.77;;
186;Laerm;55473;48.800;9.002;2023-12-29T11:31:21;48.76;41.00;63.23;;
186;Laerm;55473;48.800;9.002;2023-12-29T11:34:04;49.46;42.13;61.65;;
186;Laerm;55473;48.800;9.002;2023-12-29T11:36:40;45.43;41.26;55.93;;
186;Laerm;55473;48.800;9.002;2023-12-29T11:39:37;46.95;39.56;67.27;;
186;Laerm;55473;48.800;9.002;2023-12-29T11:42:22;48.46;40.62;64.61;;
186;Laerm;55473;48.800;9.002;2023-12-29T11:44:52;46.22;41.13;61.30;;
186;Laerm;55473;48.800;9.002;2023-12-29T11:47:36;47.14;41.77;62.18;;
186;Laerm;55473;48.800;9.002;2023-12-29T11:50:03;46.47;41.17;60.57;;
186;Laerm;55473;48.800;9.002;2023-12-29T11:52:38;47.89;39.94;60.98;;
186;Laerm;55473;48.800;9.002;2023-12-29T11:55:14;45.03;40.56;59.40;;
186;Laerm;55473;48.800;9.002;2023-12-29T11:57:46;46.73;42.04;57.67;;
186;Laerm;55473;48.800;9.002;2023-12-29T12:00:12;48.54;42.14;60.36;;
186;Laerm;55473;48.800;9.002;2023-12-29T12:02:39;47.82;42.69;62.00;;
186;Laerm;55473;48.800;9.002;2023-12-29T12:05:09;46.19;42.21;56.50;;
186;Laerm;55473;48.800;9.002;2023-12-29T12:12:49;47.01;41.46;57.10;;
186;Laerm;55473;48.800;9.002;2023-12-29T12:17:57;47.30;41.66;55.49;;
186;Laerm;55473;48.800;9.002;2023-12-29T12:20:23;47.22;41.03;59.69;;
186;Laerm;55473;48.800;9.002;2023-12-29T12:23:16;48.25;41.36;62.47;;
186;Laerm;55473;48.800;9.002;2023-12-29T12:25:46;46.47;41.56;66.65;;
186;Laerm;55473;48.800;9.002;2023-12-29T12:28:14;45.84;41.18;68.00;;
186;Laerm;55473;48.800;9.002;2023-12-29T12:30:40;48.59;41.60;62.11;;
186;Laerm;55473;48.800;9.002;2023-12-29T12:33:06;47.21;42.43;62.44;;
186;Laerm;55473;48.800;9.002;2023-12-29T12:35:36;49.55;41.75;60.97;;
186;Laerm;55473;48.800;9.002;2023-12-29T12:38:11;45.66;40.89;59.28;;
186;Laerm;55473;48.800;9.002;2023-12-29T12:40:38;44.83;39.56;55.72;;
186;Laerm;55473;48.800;9.002;2023-12-29T12:43:05;45.86;41.17;64.83;;
186;Laerm;55473;48.800;9.002;2023-12-29T12:45:52;46.63;40.36;68.39;;
186;Laerm;55473;48.800;9.002;2023-12-29T12:48:34;50.12;40.58;67.25;;
186;Laerm;55473;48.800;9.002;2023-12-29T12:51:02;45.49;41.27;62.08;;
186;Laerm;55473;48.800;9.002;2023-12-29T12:53:29;44.63;40.11;51.91;;
186;Laerm;55473;48.800;9.002;2023-12-29T12:55:55;43.97;39.84;54.07;;
186;Laerm;55473;48.800;9.002;2023-12-29T12:58:22;45.92;38.86;59.03;;
186;Laerm;55473;48.800;9.002;2023-12-29T13:00:49;45.95;40.19;55.81;;
186;Laerm;55473;48.800;9.002;2023-12-29T13:03:16;49.50;41.36;59.66;;
186;Laerm;55473;48.800;9.002;2023-12-29T13:05:43;46.07;41.70;60.12;;
186;Laerm;55473;48.800;9.002;2023-12-29T13:08:11;47.34;40.72;63.94;;
186;Laerm;55473;48.800;9.002;2023-12-29T13:10:41;52.49;40.95;72.91;;
186;Laerm;55473;48.800;9.002;2023-12-29T13:13:11;49.05;40.15;66.00;;
186;Laerm;55473;48.800;9.002;2023-12-29T13:15:51;49.32;42.45;67.15;;
186;Laerm;55473;48.800;9.002;2023-12-29T13:18:28;49.46;42.61;63.47;;
186;Laerm;55473;48.800;9.002;2023-12-29T13:20:54;45.46;41.62;60.07;;
186;Laerm;55473;48.800;9.002;2023-12-29T13:23:20;44.68;40.52;56.61;;
186;Laerm;55473;48.800;9.002;2023-12-29T13:25:47;47.18;41.67;59.72;;
186;Laerm;55473;48.800;9.002;2023-12-29T13:28:15;46.58;40.75;65.15;;
186;Laerm;55473;48.800;9.002;2023-12-29T13:30:41;46.07;40.97;62.08;;
186;Laerm;55473;48.800;9.002;2023-12-29T13:33:16;48.83;41.02;61.53;;
186;Laerm;55473;48.800;9.002;2023-12-29T13:35:54;47.59;40.58;73.93;;
186;Laerm;55473;48.800;9.002;2023-12-29T13:38:29;49.33;40.29;78.17;;
186;Laerm;55473;48.800;9.002;2023-12-29T13:41:08;45.38;39.75;58.94;;
186;Laerm;55473;48.800;9.002;2023-12-29T13:43:40;48.10;40.67;61.65;;
186;Laerm;55473;48.800;9.002;2023-12-29T13:46:11;49.69;42.38;63.32;;
186;Laerm;55473;48.800;9.002;2023-12-29T13:48:39;49.50;42.00;60.77;;
186;Laerm;55473;48.800;9.002;2023-12-29T13:51:06;48.29;41.67;62.34;;
186;Laerm;55473;48.800;9.002;2023-12-29T13:53:32;46.85;40.20;65.13;;
186;Laerm;55473;48.800;9.002;2023-12-29T13:56:10;44.83;40.05;60.03;;
186;Laerm;55473;48.800;9.002;2023-12-29T13:58:36;46.15;40.67;58.24;;
186;Laerm;55473;48.800;9.002;2023-12-29T14:01:08;47.19;41.72;63.34;;
186;Laerm;55473;48.800;9.002;2023-12-29T14:03:46;48.56;41.28;61.31;;
186;Laerm;55473;48.800;9.002;2023-12-29T14:06:22;45.09;40.27;60.43;;
186;Laerm;55473;48.800;9.002;2023-12-29T14:08:52;45.52;39.76;56.72;;
186;Laerm;55473;48.800;9.002;2023-12-29T14:11:18;43.78;39.32;58.59;;
186;Laerm;55473;48.800;9.002;2023-12-29T14:13:46;45.44;39.70;54.25;;
186;Laerm;55473;48.800;9.002;2023-12-29T14:16:14;48.02;41.33;69.89;;
186;Laerm;55473;48.800;9.002;2023-12-29T14:18:55;49.32;41.51;63.50;;
186;Laerm;55473;48.800;9.002;2023-12-29T14:21:36;46.74;39.52;58.48;;
186;Laerm;55473;48.800;9.002;2023-12-29T14:24:10;44.93;40.13;58.78;;
186;Laerm;55473;48.800;9.002;2023-12-29T14:26:38;44.14;39.84;52.78;;